Arcadia, Utah
Current Conditions -  °F | °C
As of 10:53 AM on Monday 26 Jan 2015 (Local Time) from KPUC Reporting Station
Clear Clear  
Wind Chill: 45°   Ceiling: Unl
Heat Index: 45°   Visibility: 10mi
Dew Point: 25°   Wind: 0mph
Humidity: 46%   Direction: NA
Pressure: 30.39"   Gusts: NA
Location:  39.9707°N, 110.477°W
Report Text: KPUC 261753Z AUTO 00000KT 10SM CLR 07/M04 A3039 RMK AO2 SLP309 T00721039 10072 21022 56000
Loading
Personal Weather Stations






























Interactive Weather Map New forecast layout! Learn more

10-Day Weather Forecast

Advertisements
Track Severe Weather on mobile